createdAt,value
2023-02-23T00:13:32.587Z,15.15
2023-02-23T00:43:36.990Z,15.55
2023-02-23T01:13:41.438Z,14.07
2023-02-23T01:43:58.236Z,13.18
2023-02-23T02:14:03.984Z,12.35
2023-02-23T02:44:11.982Z,14.25
2023-02-23T03:14:23.553Z,13.55
2023-02-23T03:44:31.913Z,13.18
2023-02-23T04:14:39.989Z,14.57
2023-02-23T04:44:43.018Z,10.75
2023-02-23T05:14:46.022Z,11.10
2023-02-23T05:44:49.013Z,9.40
2023-02-23T06:14:52.037Z,8.80
2023-02-23T06:44:55.508Z,10.02
2023-02-23T07:14:58.468Z,8.82
2023-02-23T07:45:01.566Z,8.73
2023-02-23T08:15:05.629Z,8.60
2023-02-23T08:45:10.822Z,7.63
2023-02-23T09:15:13.970Z,9.90
2023-02-23T09:45:32.088Z,12.15
2023-02-23T10:15:38.739Z,10.52
2023-02-23T11:15:50.974Z,13.20
2023-02-23T11:45:55.440Z,14.70
2023-02-23T12:16:00.492Z,14.50
2023-02-23T12:46:08.845Z,12.75
2023-02-23T13:16:17.340Z,9.35
2023-02-23T13:46:26.650Z,8.98
2023-02-23T14:16:30.658Z,9.90
2023-02-23T14:46:36.714Z,9.27
2023-02-23T15:16:39.770Z,12.07
2023-02-23T15:46:45.017Z,14.52
2023-02-23T16:16:53.305Z,16.58
2023-02-23T16:47:32.313Z,10.48
2023-02-23T17:17:35.294Z,8.60
2023-02-23T17:47:38.468Z,14.45
2023-02-23T18:17:41.563Z,14.93
2023-02-23T18:47:44.888Z,13.10
2023-02-23T19:17:49.205Z,15.05
2023-02-23T19:47:55.111Z,14.93
2023-02-23T20:17:58.147Z,14.75
2023-02-23T20:48:01.758Z,12.38
2023-02-23T21:18:05.535Z,8.68
2023-02-23T21:48:09.317Z,11.40
2023-02-23T22:18:12.295Z,11.07
2023-02-23T22:48:15.323Z,10.45
2023-02-23T23:18:18.275Z,11.82
2023-02-23T23:48:21.268Z,11.07
